sensor_id;sensor_type;location;lat;lon;timestamp;P1;durP1;ratioP1;P2;durP2;ratioP2
74483;SDS011;62942;52.462;10.846;2023-05-29T00:00:17;3.5;;;7.2;;
74483;SDS011;62942;52.462;10.846;2023-05-29T00:01:27;3.5;;;6.7;;
74483;SDS011;62942;52.462;10.846;2023-05-29T00:02:37;3.4;;;7.5;;
74483;SDS011;62942;52.462;10.846;2023-05-29T00:03:37;3.4;;;8.3;;
74483;SDS011;62942;52.462;10.846;2023-05-29T00:04:47;3.3;;;7.2;;
74483;SDS011;62942;52.462;10.846;2023-05-29T00:05:47;3.3;;;6;;
74483;SDS011;62942;52.462;10.846;2023-05-29T00:06:57;3.5;;;8.2;;
74483;SDS011;62942;52.462;10.846;2023-05-29T00:08:07;3.5;;;8.3;;
74483;SDS011;62942;52.462;10.846;2023-05-29T00:09:17;3.7;;;8.9;;
74483;SDS011;62942;52.462;10.846;2023-05-29T00:10:27;3.7;;;7;;
74483;SDS011;62942;52.462;10.846;2023-05-29T00:11:27;3.4;;;6.2;;
74483;SDS011;62942;52.462;10.846;2023-05-29T00:12:37;3.8;;;7.8;;
74483;SDS011;62942;52.462;10.846;2023-05-29T00:13:47;3.8;;;8.4;;
74483;SDS011;62942;52.462;10.846;2023-05-29T00:14:47;3.4;;;7.3;;
74483;SDS011;62942;52.462;10.846;2023-05-29T00:15:57;3.6;;;7.3;;
74483;SDS011;62942;52.462;10.846;2023-05-29T00:17:07;3.7;;;8.3;;
74483;SDS011;62942;52.462;10.846;2023-05-29T00:18:17;3.8;;;7.3;;
74483;SDS011;62942;52.462;10.846;2023-05-29T00:19:17;3.8;;;10.1;;
74483;SDS011;62942;52.462;10.846;2023-05-29T00:20:27;3.7;;;6.7;;
74483;SDS011;62942;52.462;10.846;2023-05-29T00:21:37;4;;;6.6;;
74483;SDS011;62942;52.462;10.846;2023-05-29T00:22:47;3.8;;;8.2;;
74483;SDS011;62942;52.462;10.846;2023-05-29T00:23:57;3.9;;;6.9;;
74483;SDS011;62942;52.462;10.846;2023-05-29T00:24:57;3.6;;;6.9;;
74483;SDS011;62942;52.462;10.846;2023-05-29T00:26:07;3.8;;;7.6;;
74483;SDS011;62942;52.462;10.846;2023-05-29T00:27:17;3.6;;;7.9;;
74483;SDS011;62942;52.462;10.846;2023-05-29T00:28:27;3.9;;;7.2;;
74483;SDS011;62942;52.462;10.846;2023-05-29T00:29:27;3.9;;;7.9;;
74483;SDS011;62942;52.462;10.846;2023-05-29T00:30:37;3.7;;;6.4;;
74483;SDS011;62942;52.462;10.846;2023-05-29T00:31:47;4;;;7.3;;
74483;SDS011;62942;52.462;10.846;2023-05-29T00:32:57;3.9;;;7.4;;
74483;SDS011;62942;52.462;10.846;2023-05-29T00:34:07;3.9;;;6.6;;
74483;SDS011;62942;52.462;10.846;2023-05-29T00:35:17;3.8;;;7.5;;
74483;SDS011;62942;52.462;10.846;2023-05-29T00:36:17;3.7;;;7.3;;
74483;SDS011;62942;52.462;10.846;2023-05-29T00:37:27;3.8;;;6.9;;
74483;SDS011;62942;52.462;10.846;2023-05-29T00:38:27;3.8;;;7.1;;
74483;SDS011;62942;52.462;10.846;2023-05-29T00:39:37;3.9;;;7.3;;
74483;SDS011;62942;52.462;10.846;2023-05-29T00:40:37;3.8;;;7.6;;
74483;SDS011;62942;52.462;10.846;2023-05-29T00:41:47;3.8;;;6.8;;
74483;SDS011;62942;52.462;10.846;2023-05-29T00:42:57;3.8;;;8.3;;
74483;SDS011;62942;52.462;10.846;2023-05-29T00:43:57;3.7;;;7.9;;
74483;SDS011;62942;52.462;10.846;2023-05-29T00:45:07;3.9;;;6.3;;
74483;SDS011;62942;52.462;10.846;2023-05-29T00:46:17;3.9;;;7;;
74483;SDS011;62942;52.462;10.846;2023-05-29T00:47:27;3.7;;;7.3;;
74483;SDS011;62942;52.462;10.846;2023-05-29T00:48:37;3.7;;;6.7;;
74483;SDS011;62942;52.462;10.846;2023-05-29T00:49:47;3.6;;;6.7;;
74483;SDS011;62942;52.462;10.846;2023-05-29T00:50:57;3.8;;;7.5;;
74483;SDS011;62942;52.462;10.846;2023-05-29T00:51:57;3.7;;;7.4;;
74483;SDS011;62942;52.462;10.846;2023-05-29T00:53:07;3.6;;;6.4;;
74483;SDS011;62942;52.462;10.846;2023-05-29T00:54:17;3.6;;;6.4;;
74483;SDS011;62942;52.462;10.846;2023-05-29T00:55:27;4.1;;;9;;
74483;SDS011;62942;52.462;10.846;2023-05-29T00:56:38;3.6;;;11.8;;
74483;SDS011;62942;52.462;10.846;2023-05-29T00:57:47;3.6;;;7.7;;
74483;SDS011;62942;52.462;10.846;2023-05-29T00:58:57;3.7;;;7.1;;
74483;SDS011;62942;52.462;10.846;2023-05-29T01:00:07;3.4;;;6.3;;
74483;SDS011;62942;52.462;10.846;2023-05-29T01:01:17;3.5;;;6.1;;
74483;SDS011;62942;52.462;10.846;2023-05-29T01:02:27;3.4;;;5.6;;
74483;SDS011;62942;52.462;10.846;2023-05-29T01:03:36;3.8;;;7;;
74483;SDS011;62942;52.462;10.846;2023-05-29T01:04:47;3.5;;;5.6;;
74483;SDS011;62942;52.462;10.846;2023-05-29T01:05:57;3.6;;;6.6;;
74483;SDS011;62942;52.462;10.846;2023-05-29T01:06:57;3.6;;;7.5;;
74483;SDS011;62942;52.462;10.846;2023-05-29T01:08:07;3.7;;;7.8;;
74483;SDS011;62942;52.462;10.846;2023-05-29T01:09:07;3.5;;;6.1;;
74483;SDS011;62942;52.462;10.846;2023-05-29T01:10:17;3.5;;;6.5;;
74483;SDS011;62942;52.462;10.846;2023-05-29T01:11:29;3.7;;;7.3;;
74483;SDS011;62942;52.462;10.846;2023-05-29T01:12:38;3.3;;;6;;
74483;SDS011;62942;52.462;10.846;2023-05-29T01:13:47;3.6;;;6.1;;
74483;SDS011;62942;52.462;10.846;2023-05-29T01:15:01;3.4;;;6.4;;
74483;SDS011;62942;52.462;10.846;2023-05-29T01:16:08;3.4;;;7.2;;
74483;SDS011;62942;52.462;10.846;2023-05-29T01:17:17;3.2;;;5.7;;
74483;SDS011;62942;52.462;10.846;2023-05-29T01:18:30;3.2;;;5.2;;
74483;SDS011;62942;52.462;10.846;2023-05-29T01:19:44;3.4;;;6.9;;
74483;SDS011;62942;52.462;10.846;2023-05-29T01:20:38;3.4;;;6.5;;
74483;SDS011;62942;52.462;10.846;2023-05-29T01:22:54;3.4;;;5.9;;
74483;SDS011;62942;52.462;10.846;2023-05-29T01:23:51;3.3;;;5.5;;
74483;SDS011;62942;52.462;10.846;2023-05-29T01:24:48;3.2;;;5;;
74483;SDS011;62942;52.462;10.846;2023-05-29T01:25:58;3.4;;;7.1;;
74483;SDS011;62942;52.462;10.846;2023-05-29T01:27:07;3.3;;;7.8;;
74483;SDS011;62942;52.462;10.846;2023-05-29T01:28:17;3.4;;;6.4;;
74483;SDS011;62942;52.462;10.846;2023-05-29T01:29:17;3.4;;;7.3;;
74483;SDS011;62942;52.462;10.846;2023-05-29T01:30:16;3.5;;;6.4;;
74483;SDS011;62942;52.462;10.846;2023-05-29T01:31:17;3.3;;;5.2;;
74483;SDS011;62942;52.462;10.846;2023-05-29T01:32:26;3.5;;;6.6;;
74483;SDS011;62942;52.462;10.846;2023-05-29T01:33:38;3.4;;;6.1;;
74483;SDS011;62942;52.462;10.846;2023-05-29T01:34:36;3.1;;;5.9;;
74483;SDS011;62942;52.462;10.846;2023-05-29T01:35:46;3.3;;;6.1;;
74483;SDS011;62942;52.462;10.846;2023-05-29T01:36:56;3.4;;;6.2;;
74483;SDS011;62942;52.462;10.846;2023-05-29T01:37:57;3.4;;;5.9;;
74483;SDS011;62942;52.462;10.846;2023-05-29T01:39:06;3.6;;;7.5;;
74483;SDS011;62942;52.462;10.846;2023-05-29T01:40:07;3.5;;;6.6;;
74483;SDS011;62942;52.462;10.846;2023-05-29T01:41:17;3.3;;;6.3;;
74483;SDS011;62942;52.462;10.846;2023-05-29T01:42:27;3.3;;;6.6;;
74483;SDS011;62942;52.462;10.846;2023-05-29T01:43:37;3.3;;;6.2;;
74483;SDS011;62942;52.462;10.846;2023-05-29T01:44:46;3.4;;;6.1;;
74483;SDS011;62942;52.462;10.846;2023-05-29T01:45:56;3.5;;;5.6;;
74483;SDS011;62942;52.462;10.846;2023-05-29T01:47:07;3.4;;;6.1;;
74483;SDS011;62942;52.462;10.846;2023-05-29T01:48:17;3.5;;;6.2;;
74483;SDS011;62942;52.462;10.846;2023-05-29T01:49:16;3.4;;;7;;
74483;SDS011;62942;52.462;10.846;2023-05-29T01:50:26;3.3;;;5.6;;
74483;SDS011;62942;52.462;10.846;2023-05-29T01:51:36;3.3;;;7.1;;
74483;SDS011;62942;52.462;10.846;2023-05-29T01:52:46;3.6;;;7.6;;
74483;SDS011;62942;52.462;10.846;2023-05-29T01:53:57;3.3;;;5.5;;
74483;SDS011;62942;52.462;10.846;2023-05-29T01:55:07;3.5;;;6.4;;
74483;SDS011;62942;52.462;10.846;2023-05-29T01:56:16;3.2;;;6.2;;
74483;SDS011;62942;52.462;10.846;2023-05-29T01:57:16;3.5;;;5.8;;
74483;SDS011;62942;52.462;10.846;2023-05-29T01:58:26;3.5;;;5.6;;
74483;SDS011;62942;52.462;10.846;2023-05-29T01:59:36;3.7;;;7;;
74483;SDS011;62942;52.462;10.846;2023-05-29T02:00:46;3.4;;;5.9;;
74483;SDS011;62942;52.462;10.846;2023-05-29T02:01:56;3.7;;;6.7;;
74483;SDS011;62942;52.462;10.846;2023-05-29T02:03:06;3.2;;;5.8;;
74483;SDS011;62942;52.462;10.846;2023-05-29T02:04:07;3.2;;;5.4;;
74483;SDS011;62942;52.462;10.846;2023-05-29T02:05:16;3.4;;;6.5;;
74483;SDS011;62942;52.462;10.846;2023-05-29T02:06:26;3.4;;;5.5;;
74483;SDS011;62942;52.462;10.846;2023-05-29T02:07:36;3.3;;;5.8;;
74483;SDS011;62942;52.462;10.846;2023-05-29T02:08:36;3.5;;;5.9;;
74483;SDS011;62942;52.462;10.846;2023-05-29T02:09:46;3.5;;;6.4;;
74483;SDS011;62942;52.462;10.846;2023-05-29T02:10:46;3.4;;;6.7;;
74483;SDS011;62942;52.462;10.846;2023-05-29T02:11:56;3.9;;;6.2;;
74483;SDS011;62942;52.462;10.846;2023-05-29T02:12:56;3.7;;;7.5;;
74483;SDS011;62942;52.462;10.846;2023-05-29T02:14:06;4;;;6.8;;
74483;SDS011;62942;52.462;10.846;2023-05-29T02:15:07;4.2;;;7.6;;
74483;SDS011;62942;52.462;10.846;2023-05-29T02:16:16;4.4;;;7.2;;
74483;SDS011;62942;52.462;10.846;2023-05-29T02:17:16;4.9;;;8.4;;
74483;SDS011;62942;52.462;10.846;2023-05-29T02:18:26;5.2;;;8.2;;
74483;SDS011;62942;52.462;10.846;2023-05-29T02:19:36;5.2;;;7.6;;
74483;SDS011;62942;52.462;10.846;2023-05-29T02:20:46;5.2;;;8.3;;
74483;SDS011;62942;52.462;10.846;2023-05-29T02:21:56;5.5;;;8.3;;
74483;SDS011;62942;52.462;10.846;2023-05-29T02:23:07;5.3;;;7.8;;
74483;SDS011;62942;52.462;10.846;2023-05-29T02:24:16;5.5;;;9.2;;
74483;SDS011;62942;52.462;10.846;2023-05-29T02:25:16;5.6;;;9.1;;
74483;SDS011;62942;52.462;10.846;2023-05-29T02:26:26;5.4;;;8.3;;
74483;SDS011;62942;52.462;10.846;2023-05-29T02:27:26;5.7;;;8.6;;
74483;SDS011;62942;52.462;10.846;2023-05-29T02:28:36;5.7;;;9.8;;
74483;SDS011;62942;52.462;10.846;2023-05-29T02:29:36;5.7;;;9.8;;
74483;SDS011;62942;52.462;10.846;2023-05-29T02:30:36;6.2;;;10.6;;
74483;SDS011;62942;52.462;10.846;2023-05-29T02:31:46;6.1;;;8.2;;
74483;SDS011;62942;52.462;10.846;2023-05-29T02:32:57;5.7;;;9.8;;
74483;SDS011;62942;52.462;10.846;2023-05-29T02:34:06;5.6;;;9;;
74483;SDS011;62942;52.462;10.846;2023-05-29T02:35:07;5.6;;;8.8;;
74483;SDS011;62942;52.462;10.846;2023-05-29T02:36:16;6;;;9.5;;
74483;SDS011;62942;52.462;10.846;2023-05-29T02:37:26;6;;;10.5;;
74483;SDS011;62942;52.462;10.846;2023-05-29T02:38:26;5.6;;;9.1;;
74483;SDS011;62942;52.462;10.846;2023-05-29T02:39:26;5.5;;;8.6;;
74483;SDS011;62942;52.462;10.846;2023-05-29T02:40:36;5.7;;;10;;
74483;SDS011;62942;52.462;10.846;2023-05-29T02:41:36;5.5;;;8.1;;
74483;SDS011;62942;52.462;10.846;2023-05-29T02:42:46;5.8;;;11.9;;
74483;SDS011;62942;52.462;10.846;2023-05-29T02:43:56;5.8;;;10.5;;
74483;SDS011;62942;52.462;10.846;2023-05-29T02:45:07;5.9;;;10.4;;
74483;SDS011;62942;52.462;10.846;2023-05-29T02:46:16;6.2;;;10.7;;
74483;SDS011;62942;52.462;10.846;2023-05-29T02:47:26;5.5;;;9.8;;
74483;SDS011;62942;52.462;10.846;2023-05-29T02:48:26;6;;;9.7;;
74483;SDS011;62942;52.462;10.846;2023-05-29T02:49:36;6;;;10.8;;
74483;SDS011;62942;52.462;10.846;2023-05-29T02:50:36;6.5;;;11.4;;
74483;SDS011;62942;52.462;10.846;2023-05-29T02:51:46;6.5;;;12.5;;
74483;SDS011;62942;52.462;10.846;2023-05-29T02:52:56;5.9;;;9.4;;
74483;SDS011;62942;52.462;10.846;2023-05-29T02:54:06;6;;;11.2;;
74483;SDS011;62942;52.462;10.846;2023-05-29T02:55:16;5.8;;;10;;
74483;SDS011;62942;52.462;10.846;2023-05-29T02:56:17;6.2;;;10.4;;
74483;SDS011;62942;52.462;10.846;2023-05-29T02:57:26;6.1;;;9.8;;
74483;SDS011;62942;52.462;10.846;2023-05-29T02:58:26;6;;;9.5;;
74483;SDS011;62942;52.462;10.846;2023-05-29T02:59:26;5.9;;;10.2;;
74483;SDS011;62942;52.462;10.846;2023-05-29T03:00:37;6.4;;;11.6;;
74483;SDS011;62942;52.462;10.846;2023-05-29T03:01:36;6.2;;;10.6;;
74483;SDS011;62942;52.462;10.846;2023-05-29T03:02:46;6.1;;;10.3;;
74483;SDS011;62942;52.462;10.846;2023-05-29T03:03:56;6;;;10.7;;
74483;SDS011;62942;52.462;10.846;2023-05-29T03:05:06;6.5;;;11.2;;
74483;SDS011;62942;52.462;10.846;2023-05-29T03:06:06;6.2;;;11.1;;
74483;SDS011;62942;52.462;10.846;2023-05-29T03:07:16;6.2;;;11.3;;
74483;SDS011;62942;52.462;10.846;2023-05-29T03:08:16;6.3;;;11.1;;
74483;SDS011;62942;52.462;10.846;2023-05-29T03:09:26;6.3;;;11.9;;
74483;SDS011;62942;52.462;10.846;2023-05-29T03:10:26;6.1;;;11.5;;
74483;SDS011;62942;52.462;10.846;2023-05-29T03:11:36;6.1;;;11.3;;
74483;SDS011;62942;52.462;10.846;2023-05-29T03:12:37;6;;;10.2;;
74483;SDS011;62942;52.462;10.846;2023-05-29T03:13:46;6.5;;;12.4;;
74483;SDS011;62942;52.462;10.846;2023-05-29T03:14:46;6.3;;;11.8;;
74483;SDS011;62942;52.462;10.846;2023-05-29T03:15:46;6.1;;;10.7;;
74483;SDS011;62942;52.462;10.846;2023-05-29T03:16:56;6.1;;;11.2;;
74483;SDS011;62942;52.462;10.846;2023-05-29T03:17:56;5.8;;;10.9;;
74483;SDS011;62942;52.462;10.846;2023-05-29T03:19:06;5.9;;;10.7;;
74483;SDS011;62942;52.462;10.846;2023-05-29T03:20:16;6;;;11.1;;
74483;SDS011;62942;52.462;10.846;2023-05-29T03:21:16;6.1;;;10.1;;
74483;SDS011;62942;52.462;10.846;2023-05-29T03:22:16;6.1;;;10.2;;
74483;SDS011;62942;52.462;10.846;2023-05-29T03:23:16;5.8;;;9.6;;
74483;SDS011;62942;52.462;10.846;2023-05-29T03:24:26;5.8;;;11;;
74483;SDS011;62942;52.462;10.846;2023-05-29T03:25:36;6.2;;;12.7;;
74483;SDS011;62942;52.462;10.846;2023-05-29T03:26:46;6.4;;;11.9;;
74483;SDS011;62942;52.462;10.846;2023-05-29T03:27:56;6.4;;;11.6;;
74483;SDS011;62942;52.462;10.846;2023-05-29T03:28:56;7;;;11.7;;
74483;SDS011;62942;52.462;10.846;2023-05-29T03:30:07;6.9;;;13.4;;
74483;SDS011;62942;52.462;10.846;2023-05-29T03:31:06;7.5;;;12.9;;
74483;SDS011;62942;52.462;10.846;2023-05-29T03:32:07;7.3;;;12.5;;
74483;SDS011;62942;52.462;10.846;2023-05-29T03:33:16;7.8;;;12.8;;
74483;SDS011;62942;52.462;10.846;2023-05-29T03:34:16;8.1;;;13.7;;
74483;SDS011;62942;52.462;10.846;2023-05-29T03:35:26;7.9;;;13.1;;
74483;SDS011;62942;52.462;10.846;2023-05-29T03:36:26;8;;;12.9;;
74483;SDS011;62942;52.462;10.846;2023-05-29T03:37:26;8.1;;;14.9;;
74483;SDS011;62942;52.462;10.846;2023-05-29T03:38:26;8.3;;;13.8;;
74483;SDS011;62942;52.462;10.846;2023-05-29T03:39:36;8.2;;;13;;
74483;SDS011;62942;52.462;10.846;2023-05-29T03:40:46;8.7;;;14.2;;
74483;SDS011;62942;52.462;10.846;2023-05-29T03:41:46;8.3;;;13.6;;
74483;SDS011;62942;52.462;10.846;2023-05-29T03:42:56;8.7;;;15.3;;
74483;SDS011;62942;52.462;10.846;2023-05-29T03:44:06;8.7;;;13.2;;
74483;SDS011;62942;52.462;10.846;2023-05-29T03:45:16;8.4;;;13.4;;
74483;SDS011;62942;52.462;10.846;2023-05-29T03:46:16;9.3;;;15.4;;
74483;SDS011;62942;52.462;10.846;2023-05-29T03:47:26;8.4;;;14.2;;
74483;SDS011;62942;52.462;10.846;2023-05-29T03:48:36;8.7;;;14.3;;
74483;SDS011;62942;52.462;10.846;2023-05-29T03:49:46;8.9;;;14;;
74483;SDS011;62942;52.462;10.846;2023-05-29T03:50:47;8.9;;;14.1;;
74483;SDS011;62942;52.462;10.846;2023-05-29T03:51:56;7.9;;;13.9;;
74483;SDS011;62942;52.462;10.846;2023-05-29T03:53:06;8.4;;;14.3;;
74483;SDS011;62942;52.462;10.846;2023-05-29T03:54:06;8.1;;;15.6;;
74483;SDS011;62942;52.462;10.846;2023-05-29T03:55:16;7.5;;;13.1;;
74483;SDS011;62942;52.462;10.846;2023-05-29T03:56:26;7.4;;;12.5;;
74483;SDS011;62942;52.462;10.846;2023-05-29T03:57:26;6.9;;;12.1;;
74483;SDS011;62942;52.462;10.846;2023-05-29T03:58:36;7.2;;;12.4;;
74483;SDS011;62942;52.462;10.846;2023-05-29T03:59:46;6.6;;;12.2;;
74483;SDS011;62942;52.462;10.846;2023-05-29T04:00:46;6.3;;;11.2;;
74483;SDS011;62942;52.462;10.846;2023-05-29T04:01:46;6;;;10.3;;
74483;SDS011;62942;52.462;10.846;2023-05-29T04:02:46;6.2;;;11.2;;
74483;SDS011;62942;52.462;10.846;2023-05-29T04:03:56;5.6;;;10.2;;
74483;SDS011;62942;52.462;10.846;2023-05-29T04:05:07;6;;;11;;
74483;SDS011;62942;52.462;10.846;2023-05-29T04:06:16;5.5;;;10.6;;
74483;SDS011;62942;52.462;10.846;2023-05-29T04:07:26;5;;;8.8;;
74483;SDS011;62942;52.462;10.846;2023-05-29T04:08:36;4.8;;;11.3;;
74483;SDS011;62942;52.462;10.846;2023-05-29T04:09:46;5;;;8.8;;
74483;SDS011;62942;52.462;10.846;2023-05-29T04:10:46;4.8;;;9.8;;
74483;SDS011;62942;52.462;10.846;2023-05-29T04:11:56;4.6;;;8.4;;
74483;SDS011;62942;52.462;10.846;2023-05-29T04:12:56;4.6;;;7.7;;
74483;SDS011;62942;52.462;10.846;2023-05-29T04:14:06;4.4;;;8.3;;
74483;SDS011;62942;52.462;10.846;2023-05-29T04:15:07;4.4;;;10.4;;
74483;SDS011;62942;52.462;10.846;2023-05-29T04:16:07;4.4;;;7.7;;
74483;SDS011;62942;52.462;10.846;2023-05-29T04:17:16;4.7;;;10.8;;
74483;SDS011;62942;52.462;10.846;2023-05-29T04:18:26;4.4;;;11;;
74483;SDS011;62942;52.462;10.846;2023-05-29T04:19:36;4.3;;;8.2;;
74483;SDS011;62942;52.462;10.846;2023-05-29T04:20:36;4.2;;;9.6;;
74483;SDS011;62942;52.462;10.846;2023-05-29T04:21:36;4.2;;;9.4;;
74483;SDS011;62942;52.462;10.846;2023-05-29T04:22:46;3.9;;;7.2;;
74483;SDS011;62942;52.462;10.846;2023-05-29T04:23:46;4.2;;;9.3;;
74483;SDS011;62942;52.462;10.846;2023-05-29T04:24:56;4;;;8.8;;
74483;SDS011;62942;52.462;10.846;2023-05-29T04:25:56;3.8;;;8.8;;
74483;SDS011;62942;52.462;10.846;2023-05-29T04:27:06;4;;;8.5;;
74483;SDS011;62942;52.462;10.846;2023-05-29T04:28:06;3.6;;;8.8;;
74483;SDS011;62942;52.462;10.846;2023-05-29T04:29:16;3.9;;;10.3;;
74483;SDS011;62942;52.462;10.846;2023-05-29T04:30:26;3.8;;;7.5;;
74483;SDS011;62942;52.462;10.846;2023-05-29T04:31:36;4;;;9.9;;
74483;SDS011;62942;52.462;10.846;2023-05-29T04:32:36;3.8;;;7.9;;
74483;SDS011;62942;52.462;10.846;2023-05-29T04:33:46;3.9;;;8.2;;
74483;SDS011;62942;52.462;10.846;2023-05-29T04:34:46;4;;;9.1;;
74483;SDS011;62942;52.462;10.846;2023-05-29T04:35:56;4;;;8.7;;
74483;SDS011;62942;52.462;10.846;2023-05-29T04:37:06;4.1;;;10.1;;
74483;SDS011;62942;52.462;10.846;2023-05-29T04:38:16;4.3;;;9.4;;
74483;SDS011;62942;52.462;10.846;2023-05-29T04:39:26;4.1;;;9.5;;
74483;SDS011;62942;52.462;10.846;2023-05-29T04:40:26;4.3;;;11.6;;
74483;SDS011;62942;52.462;10.846;2023-05-29T04:41:36;4.3;;;9.9;;
74483;SDS011;62942;52.462;10.846;2023-05-29T04:42:37;4.3;;;12.7;;
74483;SDS011;62942;52.462;10.846;2023-05-29T04:43:46;4.3;;;12.2;;
74483;SDS011;62942;52.462;10.846;2023-05-29T04:44:56;4;;;8.8;;
74483;SDS011;62942;52.462;10.846;2023-05-29T04:45:56;3.9;;;9.1;;
74483;SDS011;62942;52.462;10.846;2023-05-29T04:47:06;4;;;9.6;;
74483;SDS011;62942;52.462;10.846;2023-05-29T04:48:06;3.8;;;8.8;;
74483;SDS011;62942;52.462;10.846;2023-05-29T04:49:16;4.1;;;10.4;;
74483;SDS011;62942;52.462;10.846;2023-05-29T04:50:26;3.7;;;8.4;;
74483;SDS011;62942;52.462;10.846;2023-05-29T04:51:26;4;;;10.6;;
74483;SDS011;62942;52.462;10.846;2023-05-29T04:52:36;3.7;;;11.2;;
74483;SDS011;62942;52.462;10.846;2023-05-29T04:53:46;3.8;;;9.9;;
74483;SDS011;62942;52.462;10.846;2023-05-29T04:54:46;3.6;;;9.8;;
74483;SDS011;62942;52.462;10.846;2023-05-29T04:55:56;3.7;;;10.3;;
74483;SDS011;62942;52.462;10.846;2023-05-29T04:57:06;3.7;;;10.3;;
74483;SDS011;62942;52.462;10.846;2023-05-29T04:58:16;3.7;;;10.3;;
74483;SDS011;62942;52.462;10.846;2023-05-29T04:59:16;3.6;;;10.4;;
74483;SDS011;62942;52.462;10.846;2023-05-29T05:00:26;3.8;;;10.3;;
74483;SDS011;62942;52.462;10.846;2023-05-29T05:01:36;3.8;;;10.2;;
74483;SDS011;62942;52.462;10.846;2023-05-29T05:02:47;3.6;;;10.1;;
74483;SDS011;62942;52.462;10.846;2023-05-29T05:03:56;3.6;;;10.9;;
74483;SDS011;62942;52.462;10.846;2023-05-29T05:04:56;3.5;;;9.7;;
74483;SDS011;62942;52.462;10.846;2023-05-29T05:06:06;3.5;;;9.3;;
74483;SDS011;62942;52.462;10.846;2023-05-29T05:07:06;3.3;;;10.6;;
74483;SDS011;62942;52.462;10.846;2023-05-29T05:08:16;3.4;;;9.3;;
74483;SDS011;62942;52.462;10.846;2023-05-29T05:09:26;3.7;;;10;;
74483;SDS011;62942;52.462;10.846;2023-05-29T05:10:26;3.8;;;12.3;;
74483;SDS011;62942;52.462;10.846;2023-05-29T05:11:36;3.5;;;10.6;;
74483;SDS011;62942;52.462;10.846;2023-05-29T05:12:36;3.8;;;12.1;;
74483;SDS011;62942;52.462;10.846;2023-05-29T05:13:46;3.5;;;9.2;;
74483;SDS011;62942;52.462;10.846;2023-05-29T05:14:46;4;;;10.2;;
74483;SDS011;62942;52.462;10.846;2023-05-29T05:15:46;3.6;;;12.2;;
74483;SDS011;62942;52.462;10.846;2023-05-29T05:16:56;3.8;;;11;;
74483;SDS011;62942;52.462;10.846;2023-05-29T05:18:06;3.6;;;11.5;;
74483;SDS011;62942;52.462;10.846;2023-05-29T05:19:16;3.8;;;11.3;;
74483;SDS011;62942;52.462;10.846;2023-05-29T05:20:26;4;;;11.3;;
74483;SDS011;62942;52.462;10.846;2023-05-29T05:21:36;3.7;;;10;;
74483;SDS011;62942;52.462;10.846;2023-05-29T05:22:36;3.4;;;9.5;;
74483;SDS011;62942;52.462;10.846;2023-05-29T05:23:46;3.6;;;11.5;;
74483;SDS011;62942;52.462;10.846;2023-05-29T05:24:46;3.6;;;11.5;;
74483;SDS011;62942;52.462;10.846;2023-05-29T05:25:56;3.5;;;11.3;;
74483;SDS011;62942;52.462;10.846;2023-05-29T05:26:56;3.6;;;9.2;;
74483;SDS011;62942;52.462;10.846;2023-05-29T05:28:07;3.7;;;10.8;;
74483;SDS011;62942;52.462;10.846;2023-05-29T05:29:06;4.1;;;11;;
74483;SDS011;62942;52.462;10.846;2023-05-29T05:30:16;4.4;;;13.1;;
74483;SDS011;62942;52.462;10.846;2023-05-29T05:31:26;3.9;;;10.8;;
74483;SDS011;62942;52.462;10.846;2023-05-29T05:32:36;4;;;12.1;;
74483;SDS011;62942;52.462;10.846;2023-05-29T05:33:46;3.9;;;12;;
74483;SDS011;62942;52.462;10.846;2023-05-29T05:34:46;3.8;;;9.8;;
74483;SDS011;62942;52.462;10.846;2023-05-29T05:35:56;3.8;;;10.8;;
74483;SDS011;62942;52.462;10.846;2023-05-29T05:37:06;4;;;10.9;;
74483;SDS011;62942;52.462;10.846;2023-05-29T05:38:06;3.8;;;10.9;;
74483;SDS011;62942;52.462;10.846;2023-05-29T05:39:16;4;;;12.9;;
74483;SDS011;62942;52.462;10.846;2023-05-29T05:40:26;4.1;;;11;;
74483;SDS011;62942;52.462;10.846;2023-05-29T05:41:36;4.1;;;11.5;;
74483;SDS011;62942;52.462;10.846;2023-05-29T05:42:46;4.1;;;11.9;;
74483;SDS011;62942;52.462;10.846;2023-05-29T05:43:56;4;;;11.6;;
74483;SDS011;62942;52.462;10.846;2023-05-29T05:44:56;4;;;11.6;;
74483;SDS011;62942;52.462;10.846;2023-05-29T05:45:56;4.1;;;11.2;;
74483;SDS011;62942;52.462;10.846;2023-05-29T05:46:56;4.1;;;10.4;;
74483;SDS011;62942;52.462;10.846;2023-05-29T05:48:06;3.8;;;9.7;;
74483;SDS011;62942;52.462;10.846;2023-05-29T05:49:16;4;;;10.9;;
74483;SDS011;62942;52.462;10.846;2023-05-29T05:50:26;3.8;;;11.7;;
74483;SDS011;62942;52.462;10.846;2023-05-29T05:51:26;3.6;;;11.6;;
74483;SDS011;62942;52.462;10.846;2023-05-29T05:52:36;3.7;;;10.8;;
74483;SDS011;62942;52.462;10.846;2023-05-29T05:53:46;3.3;;;10.4;;
74483;SDS011;62942;52.462;10.846;2023-05-29T05:54:46;3.5;;;10.3;;
74483;SDS011;62942;52.462;10.846;2023-05-29T05:55:46;3.6;;;11.2;;
74483;SDS011;62942;52.462;10.846;2023-05-29T05:56:56;3.9;;;12.2;;
74483;SDS011;62942;52.462;10.846;2023-05-29T05:58:06;3.5;;;13.1;;
74483;SDS011;62942;52.462;10.846;2023-05-29T05:59:06;3.8;;;11.6;;
74483;SDS011;62942;52.462;10.846;2023-05-29T06:00:06;3.2;;;10.4;;
74483;SDS011;62942;52.462;10.846;2023-05-29T06:01:06;3.1;;;9.8;;
74483;SDS011;62942;52.462;10.846;2023-05-29T06:02:16;3;;;9.7;;
74483;SDS011;62942;52.462;10.846;2023-05-29T06:03:16;3.4;;;11.4;;
74483;SDS011;62942;52.462;10.846;2023-05-29T06:04:16;3.3;;;11.8;;
74483;SDS011;62942;52.462;10.846;2023-05-29T06:05:26;3.4;;;9.9;;
74483;SDS011;62942;52.462;10.846;2023-05-29T06:06:26;3.3;;;12.7;;
74483;SDS011;62942;52.462;10.846;2023-05-29T06:07:36;3.1;;;8.9;;
74483;SDS011;62942;52.462;10.846;2023-05-29T06:08:36;3.2;;;10.4;;
74483;SDS011;62942;52.462;10.846;2023-05-29T06:09:46;3.1;;;10;;
74483;SDS011;62942;52.462;10.846;2023-05-29T06:10:56;3.1;;;10.7;;
74483;SDS011;62942;52.462;10.846;2023-05-29T06:12:06;3.2;;;9.7;;
74483;SDS011;62942;52.462;10.846;2023-05-29T06:13:06;3.2;;;9.7;;
74483;SDS011;62942;52.462;10.846;2023-05-29T06:14:16;3.2;;;9.4;;
74483;SDS011;62942;52.462;10.846;2023-05-29T06:15:16;2.8;;;9.1;;
74483;SDS011;62942;52.462;10.846;2023-05-29T06:16:26;2.9;;;9.4;;
74483;SDS011;62942;52.462;10.846;2023-05-29T06:17:26;3.2;;;10.6;;
74483;SDS011;62942;52.462;10.846;2023-05-29T06:18:36;3.1;;;11.6;;
74483;SDS011;62942;52.462;10.846;2023-05-29T06:19:36;2.9;;;9.9;;
74483;SDS011;62942;52.462;10.846;2023-05-29T06:20:46;3.2;;;9.5;;
74483;SDS011;62942;52.462;10.846;2023-05-29T06:21:56;3.3;;;10.2;;
74483;SDS011;62942;52.462;10.846;2023-05-29T06:22:56;3.2;;;11.3;;
74483;SDS011;62942;52.462;10.846;2023-05-29T06:24:06;3.3;;;10.8;;
74483;SDS011;62942;52.462;10.846;2023-05-29T06:25:16;3.3;;;10.3;;
74483;SDS011;62942;52.462;10.846;2023-05-29T06:26:26;3.2;;;8.5;;
74483;SDS011;62942;52.462;10.846;2023-05-29T06:27:36;3.1;;;9.8;;
74483;SDS011;62942;52.462;10.846;2023-05-29T06:28:36;3;;;10.1;;
74483;SDS011;62942;52.462;10.846;2023-05-29T06:29:46;3.3;;;10.5;;
74483;SDS011;62942;52.462;10.846;2023-05-29T06:30:46;3.4;;;10.5;;
74483;SDS011;62942;52.462;10.846;2023-05-29T06:31:56;3.3;;;11.2;;
74483;SDS011;62942;52.462;10.846;2023-05-29T06:32:56;3.3;;;10.3;;
74483;SDS011;62942;52.462;10.846;2023-05-29T06:33:56;3.3;;;11;;
74483;SDS011;62942;52.462;10.846;2023-05-29T06:34:56;3.2;;;9.7;;
74483;SDS011;62942;52.462;10.846;2023-05-29T06:36:06;3.8;;;10.7;;
74483;SDS011;62942;52.462;10.846;2023-05-29T06:37:06;3.4;;;10.5;;
74483;SDS011;62942;52.462;10.846;2023-05-29T06:38:16;3.5;;;10.5;;
74483;SDS011;62942;52.462;10.846;2023-05-29T06:39:26;3.5;;;11.6;;
74483;SDS011;62942;52.462;10.846;2023-05-29T06:40:36;4.2;;;11.7;;
74483;SDS011;62942;52.462;10.846;2023-05-29T06:41:46;3.6;;;10.5;;
74483;SDS011;62942;52.462;10.846;2023-05-29T06:42:56;3.6;;;11.7;;
74483;SDS011;62942;52.462;10.846;2023-05-29T06:44:06;3.5;;;11.1;;
74483;SDS011;62942;52.462;10.846;2023-05-29T06:45:16;3.7;;;10.2;;
74483;SDS011;62942;52.462;10.846;2023-05-29T06:46:26;3.8;;;10.1;;
74483;SDS011;62942;52.462;10.846;2023-05-29T06:47:26;3.7;;;13.2;;